createdAt,value
2016-05-13T00:00:06.697Z,33.45
2016-05-13T00:01:06.902Z,33.07
2016-05-13T00:02:06.967Z,33.17
2016-05-13T00:03:07.204Z,32.59
2016-05-13T00:04:07.066Z,33.26
2016-05-13T00:05:07.163Z,33.07
2016-05-13T00:06:07.259Z,33.17
2016-05-13T00:07:07.230Z,33.17
2016-05-13T00:08:07.296Z,33.36
2016-05-13T00:09:07.392Z,33.36
2016-05-13T00:10:07.394Z,33.07
2016-05-13T00:11:07.460Z,33.26
2016-05-13T00:12:07.510Z,33.45
2016-05-13T00:13:07.575Z,33.45
2016-05-13T00:14:07.624Z,33.36
2016-05-13T00:15:07.674Z,33.17
2016-05-13T00:16:07.582Z,33.45
2016-05-13T00:17:07.788Z,33.17
2016-05-13T00:18:07.790Z,33.26
2016-05-13T00:19:07.747Z,33.36
2016-05-13T00:20:07.954Z,32.87
2016-05-13T00:21:08.018Z,33.36
2016-05-13T00:22:08.068Z,33.26
2016-05-13T00:23:08.133Z,33.26
2016-05-13T00:24:08.167Z,33.07
2016-05-13T00:25:08.060Z,33.55
2016-05-13T00:26:08.125Z,33.45
2016-05-13T00:27:08.331Z,32.87
2016-05-13T00:28:08.381Z,33.26
2016-05-13T00:29:08.430Z,33.07
2016-05-13T00:30:08.511Z,33.36
2016-05-13T00:31:08.561Z,33.17
2016-05-13T00:32:08.625Z,32.78
2016-05-13T00:33:08.520Z,33.17
2016-05-13T00:34:08.725Z,32.78
2016-05-13T00:35:08.775Z,32.68
2016-05-13T00:36:08.839Z,33.36
2016-05-13T00:37:08.889Z,33.45
2016-05-13T00:38:08.938Z,33.26
2016-05-13T00:39:08.988Z,33.75
2016-05-13T00:40:09.038Z,33.26
2016-05-13T00:41:08.963Z,33.17
2016-05-13T00:42:09.169Z,33.75
2016-05-13T00:43:09.218Z,33.75
2016-05-13T00:44:09.283Z,33.65
2016-05-13T00:45:09.332Z,33.65
2016-05-13T00:46:09.382Z,33.75
2016-05-13T00:47:09.432Z,33.65
2016-05-13T00:48:09.341Z,33.65
2016-05-13T00:49:09.531Z,33.75
2016-05-13T00:50:09.596Z,33.65
2016-05-13T00:51:09.645Z,33.17
2016-05-13T00:52:09.539Z,33.45
2016-05-13T00:53:09.760Z,33.55
2016-05-13T00:54:09.809Z,33.36
2016-05-13T00:55:09.704Z,33.55
2016-05-13T00:56:09.925Z,33.65
2016-05-13T00:57:09.990Z,33.55
2016-05-13T00:58:10.024Z,33.65
2016-05-13T00:59:10.089Z,33.65
2016-05-13T01:00:10.154Z,33.45
2016-05-13T01:01:10.203Z,33.65
2016-05-13T01:02:10.264Z,33.55
2016-05-13T01:03:10.966Z,33.55
2016-05-13T01:04:10.451Z,33.45
2016-05-13T01:05:10.402Z,33.65
2016-05-13T01:06:10.652Z,33.65
2016-05-13T01:07:10.597Z,33.36
2016-05-13T01:08:10.819Z,33.65
2016-05-13T01:09:10.900Z,33.55
2016-05-13T01:10:10.949Z,33.55
2016-05-13T01:11:11.030Z,33.55
2016-05-13T01:12:11.093Z,33.36
2016-05-13T01:13:11.148Z,33.65
2016-05-13T01:14:11.062Z,33.55
2016-05-13T01:15:11.274Z,33.65
2016-05-13T01:16:11.329Z,33.36
2016-05-13T01:17:11.383Z,33.75
2016-05-13T01:18:11.449Z,33.75
2016-05-13T01:19:11.501Z,33.75
2016-05-13T01:20:11.568Z,33.55
2016-05-13T01:21:11.463Z,33.36
2016-05-13T01:22:11.670Z,33.45
2016-05-13T01:23:11.737Z,32.68
2016-05-13T01:24:11.802Z,33.36
2016-05-13T01:25:11.697Z,32.78
2016-05-13T01:26:11.904Z,32.97
2016-05-13T01:27:11.969Z,33.36
2016-05-13T01:28:12.004Z,33.55
2016-05-13T01:29:12.069Z,32.97
2016-05-13T01:30:12.118Z,33.36
2016-05-13T01:31:12.169Z,33.36
2016-05-13T01:32:12.078Z,33.07
2016-05-13T01:33:12.284Z,33.07
2016-05-13T01:34:12.177Z,33.36
2016-05-13T01:35:12.398Z,33.17
2016-05-13T01:36:12.448Z,33.17
2016-05-13T01:37:12.499Z,33.45
2016-05-13T01:38:12.563Z,33.45
2016-05-13T01:39:12.597Z,33.07
2016-05-13T01:40:12.662Z,33.36
2016-05-13T01:41:12.712Z,33.45
2016-05-13T01:42:12.777Z,33.07
2016-05-13T01:43:12.670Z,33.45
2016-05-13T01:44:12.892Z,33.07
2016-05-13T01:45:12.957Z,33.17
2016-05-13T01:46:13.006Z,33.36
2016-05-13T01:47:12.900Z,33.17
2016-05-13T01:48:13.262Z,33.07
2016-05-13T01:49:13.171Z,32.59
2016-05-13T01:50:13.221Z,33.26
2016-05-13T01:51:13.270Z,33.26
2016-05-13T01:52:13.320Z,32.49
2016-05-13T01:53:13.369Z,33.26
2016-05-13T01:54:13.419Z,33.26
2016-05-13T01:55:13.483Z,32.49
2016-05-13T01:56:13.533Z,32.97
2016-05-13T01:57:13.442Z,33.45
2016-05-13T01:58:13.648Z,32.87
2016-05-13T01:59:13.698Z,32.97
2016-05-13T02:00:13.763Z,32.59
2016-05-13T02:01:13.813Z,32.49
2016-05-13T02:02:13.862Z,33.26
2016-05-13T02:03:13.927Z,33.07
2016-05-13T02:04:13.977Z,33.17
2016-05-13T02:05:14.042Z,32.86
2016-05-13T02:06:14.091Z,33.15
2016-05-13T02:07:14.157Z,33.15
2016-05-13T02:08:14.190Z,33.07
2016-05-13T02:09:14.257Z,32.68
2016-05-13T02:10:14.305Z,33.05
2016-05-13T02:11:14.355Z,33.07
2016-05-13T02:12:14.405Z,33.07
2016-05-13T02:13:14.470Z,32.76
2016-05-13T02:14:14.534Z,33.17
2016-05-13T02:15:14.584Z,32.87
2016-05-13T02:16:14.635Z,32.96
2016-05-13T02:17:14.543Z,33.25
2016-05-13T02:18:14.749Z,33.05
2016-05-13T02:19:14.798Z,33.05
2016-05-13T02:20:14.863Z,33.15
2016-05-13T02:21:14.913Z,32.67
2016-05-13T02:22:14.806Z,32.57
2016-05-13T02:23:14.856Z,32.96
2016-05-13T02:24:15.093Z,32.78
2016-05-13T02:25:15.158Z,32.59
2016-05-13T02:26:15.192Z,32.96
2016-05-13T02:27:15.242Z,32.47
2016-05-13T02:28:15.291Z,32.78
2016-05-13T02:29:15.356Z,32.97
2016-05-13T02:30:15.391Z,32.57
2016-05-13T02:31:15.456Z,32.76
2016-05-13T02:32:15.505Z,32.86
2016-05-13T02:33:15.555Z,32.76
2016-05-13T02:34:15.619Z,32.47
2016-05-13T02:35:15.669Z,32.76
2016-05-13T02:36:15.734Z,32.49
2016-05-13T02:37:15.612Z,32.67
2016-05-13T02:38:15.694Z,32.57
2016-05-13T02:39:15.899Z,32.78
2016-05-13T02:40:15.965Z,32.47
2016-05-13T02:41:16.013Z,32.38
2016-05-13T02:42:16.079Z,32.86
2016-05-13T02:43:16.113Z,32.38
2016-05-13T02:44:16.021Z,32.76
2016-05-13T02:45:16.228Z,32.18
2016-05-13T02:46:16.262Z,32.76
2016-05-13T02:47:16.326Z,32.38
2016-05-13T02:48:16.407Z,32.47
2016-05-13T02:49:16.442Z,32.28
2016-05-13T02:50:16.492Z,32.76
2016-05-13T02:51:16.557Z,32.57
2016-05-13T02:52:16.622Z,32.28
2016-05-13T02:53:16.655Z,32.47
2016-05-13T02:54:16.720Z,32.47
2016-05-13T02:55:16.786Z,32.09
2016-05-13T02:56:16.803Z,32.38
2016-05-13T02:57:16.886Z,31.99
2016-05-13T02:58:16.950Z,32.09
2016-05-13T02:59:16.969Z,31.89
2016-05-13T03:00:17.033Z,32.18
2016-05-13T03:01:17.083Z,31.89
2016-05-13T03:02:17.149Z,32.67
2016-05-13T03:03:17.213Z,32.28
2016-05-13T03:04:17.091Z,32.28
2016-05-13T03:05:17.328Z,32.18
2016-05-13T03:06:17.378Z,32.57
2016-05-13T03:07:17.271Z,32.57
2016-05-13T03:08:17.508Z,32.28
2016-05-13T03:09:17.402Z,31.8
2016-05-13T03:10:17.561Z,32.18
2016-05-13T03:11:17.641Z,32.09
2016-05-13T03:12:17.707Z,31.89
2016-05-13T03:13:17.740Z,31.89
2016-05-13T03:14:17.809Z,32.09
2016-05-13T03:15:17.857Z,32.18
2016-05-13T03:16:17.923Z,31.99
2016-05-13T03:17:17.988Z,31.99
2016-05-13T03:18:18.006Z,31.99
2016-05-13T03:19:18.072Z,31.89
2016-05-13T03:20:18.136Z,32.18
2016-05-13T03:21:18.014Z,32.18
2016-05-13T03:22:18.237Z,31.99
2016-05-13T03:23:18.301Z,32.09
2016-05-13T03:24:18.351Z,32.09
2016-05-13T03:25:18.384Z,31.6
2016-05-13T03:26:18.481Z,31.51
2016-05-13T03:27:18.500Z,31.8
2016-05-13T03:28:18.580Z,31.6
2016-05-13T03:29:18.645Z,31.41
2016-05-13T03:30:18.680Z,31.7
2016-05-13T03:31:18.744Z,31.99
2016-05-13T03:32:19.060Z,31.6
2016-05-13T03:33:18.688Z,31.6
2016-05-13T03:34:18.738Z,31.51
2016-05-13T03:35:18.803Z,31.6
2016-05-13T03:36:18.993Z,31.51
2016-05-13T03:37:19.058Z,31.6
2016-05-13T03:38:19.123Z,31.41
2016-05-13T03:39:19.157Z,31.51
2016-05-13T03:40:19.221Z,31.41
2016-05-13T03:41:19.272Z,31.8
2016-05-13T03:42:19.337Z,31.8
2016-05-13T03:43:19.402Z,31.51
2016-05-13T03:44:19.421Z,31.6
2016-05-13T03:45:19.501Z,31.51
2016-05-13T03:46:19.551Z,31.8
2016-05-13T03:47:19.585Z,31.41
2016-05-13T03:48:19.650Z,31.51
2016-05-13T03:49:19.715Z,31.8
2016-05-13T03:50:19.765Z,31.8
2016-05-13T03:51:19.814Z,31.2
2016-05-13T03:52:19.879Z,31.51
2016-05-13T03:53:19.945Z,31.4
2016-05-13T03:54:19.995Z,31.51
2016-05-13T03:55:20.044Z,31.41
2016-05-13T03:56:20.093Z,31.2
2016-05-13T03:57:20.158Z,31.6
2016-05-13T03:58:20.192Z,31.31
2016-05-13T03:59:20.101Z,31.2
2016-05-13T04:00:20.307Z,31.2
2016-05-13T04:01:20.357Z,31.22
2016-05-13T04:02:20.594Z,31.3
2016-05-13T04:03:20.472Z,31.2
2016-05-13T04:04:20.536Z,31.49
2016-05-13T04:05:20.602Z,31.31
2016-05-13T04:06:20.619Z,31.49
2016-05-13T04:07:20.686Z,31.3
2016-05-13T04:08:20.750Z,31.2
2016-05-13T04:09:20.785Z,31.3
2016-05-13T04:10:20.849Z,31.3
2016-05-13T04:11:20.915Z,31.2
2016-05-13T04:12:20.965Z,31.2
2016-05-13T04:13:21.014Z,31.01
2016-05-13T04:14:21.095Z,31.01
2016-05-13T04:15:20.973Z,31.2
2016-05-13T04:16:21.178Z,31.1
2016-05-13T04:17:21.243Z,31.1
2016-05-13T04:18:21.277Z,31.01
2016-05-13T04:19:21.359Z,31.01
2016-05-13T04:20:21.408Z,31.01
2016-05-13T04:21:21.285Z,30.91
2016-05-13T04:22:21.523Z,31.1
2016-05-13T04:23:21.415Z,31.1
2016-05-13T04:24:21.606Z,31.2
2016-05-13T04:25:21.670Z,31.1
2016-05-13T04:26:21.737Z,31.2
2016-05-13T04:27:21.755Z,31.01
2016-05-13T04:28:21.820Z,31.01
2016-05-13T04:29:21.886Z,30.91
2016-05-13T04:30:21.934Z,31.1
2016-05-13T04:31:21.984Z,30.82
2016-05-13T04:32:22.033Z,31.1
2016-05-13T04:33:22.083Z,31.1
2016-05-13T04:34:22.164Z,30.82
2016-05-13T04:35:22.214Z,31.1
2016-05-13T04:36:22.263Z,31.1
2016-05-13T04:37:22.360Z,30.62
2016-05-13T04:38:22.394Z,30.62
2016-05-13T04:39:22.428Z,30.72
2016-05-13T04:40:22.477Z,30.62
2016-05-13T04:41:22.558Z,31.01
2016-05-13T04:42:22.607Z,30.91
2016-05-13T04:43:22.641Z,30.62
2016-05-13T04:44:22.706Z,30.91
2016-05-13T04:45:22.757Z,30.82
2016-05-13T04:46:22.822Z,30.91
2016-05-13T04:47:22.871Z,30.82
2016-05-13T04:48:22.904Z,30.62
2016-05-13T04:49:22.970Z,30.62
2016-05-13T04:50:23.034Z,30.62
2016-05-13T04:51:23.069Z,30.72
2016-05-13T04:52:23.119Z,30.82
2016-05-13T04:53:23.028Z,30.82
2016-05-13T04:54:23.233Z,30.62
2016-05-13T04:55:23.298Z,30.72
2016-05-13T04:56:23.364Z,30.82
2016-05-13T04:57:23.414Z,30.82
2016-05-13T04:58:23.464Z,30.52
2016-05-13T04:59:23.497Z,30.52
2016-05-13T05:00:23.406Z,30.82
2016-05-13T05:01:23.627Z,30.62
2016-05-13T05:02:23.677Z,30.62
2016-05-13T05:03:23.711Z,30.52
2016-05-13T05:04:23.792Z,30.52
2016-05-13T05:05:23.842Z,30.43
2016-05-13T05:06:23.891Z,30.43
2016-05-13T05:07:23.972Z,30.33
2016-05-13T05:08:24.005Z,30.24
2016-05-13T05:09:24.071Z,30.33
2016-05-13T05:10:24.104Z,30.52
2016-05-13T05:11:24.155Z,30.62
2016-05-13T05:12:24.219Z,30.14
2016-05-13T05:13:24.254Z,30.14
2016-05-13T05:14:24.319Z,30.24
2016-05-13T05:15:24.384Z,30.14
2016-05-13T05:16:24.433Z,30.04
2016-05-13T05:17:24.967Z,30.14
2016-05-13T05:18:24.563Z,30.04
2016-05-13T05:19:24.613Z,30.04
2016-05-13T05:20:24.491Z,30.14
2016-05-13T05:21:24.728Z,30.14
2016-05-13T05:22:24.762Z,29.85
2016-05-13T05:23:24.826Z,30.04
2016-05-13T05:24:24.877Z,29.56
2016-05-13T05:25:24.911Z,29.66
2016-05-13T05:26:24.992Z,30.43
2016-05-13T05:27:25.056Z,29.75
2016-05-13T05:28:25.075Z,30.33
2016-05-13T05:29:25.139Z,30.04
2016-05-13T05:30:25.205Z,29.85
2016-05-13T05:31:25.240Z,29.85
2016-05-13T05:32:25.289Z,30.04
2016-05-13T05:33:25.370Z,29.94
2016-05-13T05:34:25.419Z,30.14
2016-05-13T05:35:25.469Z,29.66
2016-05-13T05:36:25.519Z,29.66
2016-05-13T05:37:25.583Z,29.56
2016-05-13T05:38:25.633Z,29.66
2016-05-13T05:39:25.683Z,29.46
2016-05-13T05:40:25.748Z,29.85
2016-05-13T05:41:25.813Z,29.56
2016-05-13T05:42:25.863Z,29.75
2016-05-13T05:43:25.896Z,29.66
2016-05-13T05:44:25.977Z,29.36
2016-05-13T05:45:25.995Z,29.46
2016-05-13T05:46:26.060Z,29.66
2016-05-13T05:47:25.971Z,29.66
2016-05-13T05:48:26.176Z,29.46
2016-05-13T05:49:26.085Z,29.66
2016-05-13T05:50:26.290Z,29.46
2016-05-13T05:51:26.324Z,29.75
2016-05-13T05:52:26.405Z,29.66
2016-05-13T05:53:26.423Z,29.75
2016-05-13T05:54:26.489Z,29.46
2016-05-13T05:55:26.553Z,29.17
2016-05-13T05:56:26.604Z,29.56
2016-05-13T05:57:26.637Z,29.36
2016-05-13T05:58:26.734Z,29.36
2016-05-13T05:59:26.768Z,29.17
2016-05-13T06:00:26.833Z,29.46
2016-05-13T06:01:26.867Z,29.17
2016-05-13T06:02:26.931Z,29.66
2016-05-13T06:03:26.997Z,29.08
2016-05-13T06:04:27.047Z,28.88
2016-05-13T06:05:26.925Z,28.88
2016-05-13T06:06:27.161Z,29.08
2016-05-13T06:07:27.211Z,28.88
2016-05-13T06:08:27.245Z,28.59
2016-05-13T06:09:27.311Z,28.98
2016-05-13T06:10:27.375Z,29.36
2016-05-13T06:11:27.409Z,29.36
2016-05-13T06:12:27.458Z,29.08
2016-05-13T06:13:27.540Z,28.98
2016-05-13T06:14:27.574Z,28.98
2016-05-13T06:15:27.623Z,29.56
2016-05-13T06:16:28.079Z,28.98
2016-05-13T06:17:28.363Z,29.08
2016-05-13T06:18:27.632Z,29.46
2016-05-13T06:19:27.853Z,28.69
2016-05-13T06:20:27.746Z,28.69
2016-05-13T06:21:27.952Z,29.66
2016-05-13T06:22:28.018Z,28.88
2016-05-13T06:23:27.910Z,29.17
2016-05-13T06:24:28.116Z,28.59
2016-05-13T06:25:28.040Z,28.69
2016-05-13T06:26:28.215Z,28.78
2016-05-13T06:27:28.296Z,28.69
2016-05-13T06:28:28.346Z,29.36
2016-05-13T06:29:28.395Z,29.56
2016-05-13T06:30:28.461Z,29.66
2016-05-13T06:31:28.525Z,28.59
2016-05-13T06:32:28.545Z,28.59
2016-05-13T06:33:28.609Z,28.69
2016-05-13T06:34:28.674Z,29.27
2016-05-13T06:35:28.552Z,28.88
2016-05-13T06:36:28.773Z,28.88
2016-05-13T06:37:28.838Z,28.69
2016-05-13T06:38:28.889Z,29.36
2016-05-13T06:39:28.953Z,28.69
2016-05-13T06:40:28.971Z,28.88
2016-05-13T06:41:29.052Z,28.78
2016-05-13T06:42:29.103Z,28.98
2016-05-13T06:43:29.135Z,29.36
2016-05-13T06:44:29.185Z,28.88
2016-05-13T06:45:29.266Z,28.98
2016-05-13T06:46:29.300Z,28.88
2016-05-13T06:47:29.366Z,29.08
2016-05-13T06:48:29.430Z,28.98
2016-05-13T06:49:29.480Z,28.88
2016-05-13T06:50:29.514Z,28.78
2016-05-13T06:51:29.610Z,29.17
2016-05-13T06:52:29.645Z,28.78
2016-05-13T06:53:29.709Z,28.78
2016-05-13T06:54:29.743Z,28.88
2016-05-13T06:55:29.637Z,29.36
2016-05-13T06:56:29.702Z,28.88
2016-05-13T06:57:29.893Z,29.27
2016-05-13T06:58:29.957Z,29.17
2016-05-13T06:59:29.866Z,28.98
2016-05-13T07:00:30.073Z,28.78
2016-05-13T07:01:30.107Z,28.78
2016-05-13T07:02:30.281Z,28.98
2016-05-13T07:03:30.081Z,29.17
2016-05-13T07:04:30.302Z,28.78
2016-05-13T07:05:30.320Z,28.78
2016-05-13T07:06:30.386Z,28.98
2016-05-13T07:07:30.450Z,28.88
2016-05-13T07:08:30.500Z,28.78
2016-05-13T07:09:30.393Z,28.69
2016-05-13T07:10:30.631Z,29.36
2016-05-13T07:11:30.680Z,28.69
2016-05-13T07:12:30.557Z,29.17
2016-05-13T07:13:30.795Z,29.08
2016-05-13T07:14:30.844Z,28.69
2016-05-13T07:15:30.878Z,29.27
2016-05-13T07:16:30.944Z,29.27
2016-05-13T07:17:30.993Z,28.88
2016-05-13T07:18:31.057Z,28.78
2016-05-13T07:19:31.124Z,28.69
2016-05-13T07:20:31.141Z,29.36
2016-05-13T07:21:31.223Z,28.78
2016-05-13T07:22:31.272Z,28.5
2016-05-13T07:23:31.322Z,28.69
2016-05-13T07:24:31.371Z,28.69
2016-05-13T07:25:31.420Z,28.59
2016-05-13T07:26:31.487Z,29.56
2016-05-13T07:27:31.520Z,29.56
2016-05-13T07:28:31.601Z,28.59
2016-05-13T07:29:31.495Z,28.88
2016-05-13T07:30:31.715Z,28.69
2016-05-13T07:31:31.734Z,29.66
2016-05-13T07:32:32.065Z,29.66
2016-05-13T07:33:31.864Z,28.98
2016-05-13T07:34:31.914Z,29.75
2016-05-13T07:35:31.963Z,29.56
2016-05-13T07:36:32.044Z,29.27
2016-05-13T07:37:32.078Z,28.88
2016-05-13T07:38:32.128Z,28.78
2016-05-13T07:39:32.192Z,28.78
2016-05-13T07:40:32.086Z,29.38
2016-05-13T07:41:32.292Z,29.36
2016-05-13T07:42:32.201Z,29.47
2016-05-13T07:43:32.392Z,29.19
2016-05-13T07:44:32.456Z,29.19
2016-05-13T07:45:32.505Z,29.17
2016-05-13T07:46:32.555Z,29.28
2016-05-13T07:47:32.621Z,29.28
2016-05-13T07:48:32.671Z,29.38
2016-05-13T07:49:32.720Z,28.88
2016-05-13T07:50:32.785Z,29.09
2016-05-13T07:51:32.835Z,29.47
2016-05-13T07:52:32.885Z,28.99
2016-05-13T07:53:32.980Z,29.36
2016-05-13T07:54:33.015Z,29.19
2016-05-13T07:55:32.892Z,29.67
2016-05-13T07:56:33.098Z,29.38
2016-05-13T07:57:33.163Z,29.47
2016-05-13T07:58:33.213Z,29.57
2016-05-13T07:59:33.262Z,29.28
2016-05-13T08:00:33.328Z,29.57
2016-05-13T08:01:33.377Z,29.86
2016-05-13T08:02:34.364Z,29.38
2016-05-13T08:03:33.570Z,29.67
2016-05-13T08:04:33.384Z,29.86
2016-05-13T08:05:33.435Z,29.57
2016-05-13T08:06:33.515Z,29.38
2016-05-13T08:07:33.753Z,29.86
2016-05-13T08:08:33.771Z,29.57
2016-05-13T08:09:33.806Z,29.47
2016-05-13T08:10:33.855Z,29.47
2016-05-13T08:11:33.935Z,29.77
2016-05-13T08:12:33.985Z,29.47
2016-05-13T08:13:34.019Z,29.57
2016-05-13T08:14:34.100Z,30.35
2016-05-13T08:15:34.165Z,29.57
2016-05-13T08:16:34.199Z,29.67
2016-05-13T08:17:34.702Z,29.47
2016-05-13T08:18:34.314Z,29.67
2016-05-13T08:19:34.363Z,29.57
2016-05-13T08:20:34.428Z,29.86
2016-05-13T08:21:34.462Z,30.44
2016-05-13T08:22:34.544Z,30.54
2016-05-13T08:23:34.577Z,29.77
2016-05-13T08:24:34.642Z,30.35
2016-05-13T08:25:34.708Z,29.67
2016-05-13T08:26:34.757Z,30.63
2016-05-13T08:27:34.791Z,29.67
2016-05-13T08:28:34.856Z,30.44
2016-05-13T08:29:34.921Z,29.67
2016-05-13T08:30:34.955Z,29.57
2016-05-13T08:31:35.004Z,29.67
2016-05-13T08:32:35.414Z,29.47
2016-05-13T08:33:35.104Z,30.35
2016-05-13T08:34:35.184Z,29.96
2016-05-13T08:35:35.218Z,29.57
2016-05-13T08:36:35.284Z,30.54
2016-05-13T08:37:35.349Z,29.86
2016-05-13T08:38:35.399Z,29.86
2016-05-13T08:39:35.433Z,29.86
2016-05-13T08:40:35.514Z,29.88
2016-05-13T08:41:35.563Z,30.05
2016-05-13T08:42:35.612Z,30.54
2016-05-13T08:43:35.694Z,30.15
2016-05-13T08:44:35.727Z,29.96
2016-05-13T08:45:35.777Z,29.86
2016-05-13T08:46:35.842Z,30.55
2016-05-13T08:47:36.142Z,30.15
2016-05-13T08:48:35.941Z,30.15
2016-05-13T08:49:35.991Z,30.35
2016-05-13T08:50:36.040Z,30.35
2016-05-13T08:51:36.105Z,30.17
2016-05-13T08:52:36.171Z,30.15
2016-05-13T08:53:36.189Z,30.25
2016-05-13T08:54:36.285Z,30.35
2016-05-13T08:55:36.179Z,30.25
2016-05-13T08:56:36.369Z,30.25
2016-05-13T08:57:36.293Z,30.44
2016-05-13T08:58:36.499Z,30.54
2016-05-13T08:59:36.533Z,30.25
2016-05-13T09:00:36.458Z,30.46
2016-05-13T09:01:36.648Z,30.44
2016-05-13T09:02:36.713Z,30.44
2016-05-13T09:03:36.778Z,30.44
2016-05-13T09:04:36.812Z,30.25
2016-05-13T09:05:36.878Z,30.55
2016-05-13T09:06:36.926Z,30.44
2016-05-13T09:07:36.961Z,30.15
2016-05-13T09:08:37.026Z,30.25
2016-05-13T09:09:37.107Z,30.15
2016-05-13T09:10:37.141Z,30.17
2016-05-13T09:11:37.190Z,30.15
2016-05-13T09:12:37.256Z,30.25
2016-05-13T09:13:37.321Z,30.25
2016-05-13T09:14:37.370Z,30.07
2016-05-13T09:15:37.405Z,30.15
2016-05-13T09:16:37.469Z,30.46
2016-05-13T09:17:37.816Z,30.05
2016-05-13T09:18:37.569Z,30.07
2016-05-13T09:19:37.619Z,30.46
2016-05-13T09:20:37.699Z,30.05
2016-05-13T09:21:37.733Z,30.55
2016-05-13T09:22:37.783Z,30.54
2016-05-13T09:23:37.863Z,29.88
2016-05-13T09:24:37.913Z,29.69
2016-05-13T09:25:37.978Z,29.97
2016-05-13T09:26:37.856Z,30.54
2016-05-13T09:27:38.062Z,30.07
2016-05-13T09:28:38.143Z,29.86
2016-05-13T09:29:38.160Z,30.54
2016-05-13T09:30:38.226Z,30.55
2016-05-13T09:31:38.291Z,30.55
2016-05-13T09:32:38.357Z,29.67
2016-05-13T09:33:38.390Z,29.78
2016-05-13T09:34:38.471Z,29.59
2016-05-13T09:35:38.365Z,29.88
2016-05-13T09:36:38.398Z,30.36
2016-05-13T09:37:38.635Z,29.78
2016-05-13T09:38:38.684Z,29.88
2016-05-13T09:39:38.720Z,29.88
2016-05-13T09:40:38.628Z,30.07
2016-05-13T09:41:38.850Z,29.78
2016-05-13T09:42:38.883Z,30.36
2016-05-13T09:43:38.933Z,29.49
2016-05-13T09:44:39.014Z,30.17
2016-05-13T09:45:39.078Z,29.97
2016-05-13T09:46:39.097Z,29.69
2016-05-13T09:47:41.881Z,29.69
2016-05-13T09:48:40.039Z,29.59
2016-05-13T09:49:39.277Z,30.17
2016-05-13T09:50:39.186Z,29.69
2016-05-13T09:51:39.376Z,30.17
2016-05-13T09:52:39.457Z,29.49
2016-05-13T09:53:39.335Z,29.49
2016-05-13T09:54:39.384Z,29.49
2016-05-13T09:55:39.605Z,29.39
2016-05-13T09:56:39.499Z,29.97
2016-05-13T09:57:39.548Z,30.07
2016-05-13T09:58:39.802Z,29.39
2016-05-13T09:59:39.819Z,29.97
2016-05-13T10:00:39.869Z,28.91
2016-05-13T10:01:39.949Z,28.52
2016-05-13T10:02:39.999Z,28.33
2016-05-13T10:03:40.034Z,28.14
2016-05-13T10:04:40.098Z,28.04
2016-05-13T10:05:40.132Z,28.43
2016-05-13T10:06:40.213Z,28.33
2016-05-13T10:07:40.281Z,28.43
2016-05-13T10:08:40.374Z,28.33
2016-05-13T10:09:40.482Z,28.62
2016-05-13T10:10:40.590Z,28.52
2016-05-13T10:11:40.666Z,28.62
2016-05-13T10:12:40.763Z,28.52
2016-05-13T10:13:40.843Z,28.91
2016-05-13T10:14:40.877Z,28.62
2016-05-13T10:15:40.972Z,28.72
2016-05-13T10:16:41.038Z,28.43
2016-05-13T10:17:40.957Z,28.52
2016-05-13T10:18:41.168Z,28.33
2016-05-13T10:19:41.208Z,29.3
2016-05-13T10:20:41.278Z,28.43
2016-05-13T10:21:41.349Z,28.14
2016-05-13T10:22:41.387Z,28.33
2016-05-13T10:23:41.297Z,28.33
2016-05-13T10:24:41.521Z,28.43
2016-05-13T10:25:41.573Z,28.72
2016-05-13T10:26:41.609Z,28.43
2016-05-13T10:27:41.690Z,28.52
2016-05-13T10:28:41.741Z,28.23
2016-05-13T10:29:41.619Z,28.04
2016-05-13T10:30:41.856Z,28.14
2016-05-13T10:31:41.923Z,28.43
2016-05-13T10:32:41.802Z,28.04
2016-05-13T10:33:42.038Z,28.33
2016-05-13T10:34:42.104Z,28.33
2016-05-13T10:35:42.123Z,27.75
2016-05-13T10:36:42.189Z,28.14
2016-05-13T10:37:42.253Z,28.04
2016-05-13T10:38:42.288Z,27.75
2016-05-13T10:39:42.338Z,28.23
2016-05-13T10:40:42.403Z,27.66
2016-05-13T10:41:42.452Z,28.33
2016-05-13T10:42:42.517Z,28.23
2016-05-13T10:43:42.552Z,27.56
2016-05-13T10:44:42.616Z,27.66
2016-05-13T10:45:42.666Z,27.46
2016-05-13T10:46:42.715Z,27.26
2016-05-13T10:47:43.187Z,27.26
2016-05-13T10:48:42.705Z,27.36
2016-05-13T10:49:42.880Z,27.26
2016-05-13T10:50:42.961Z,27.94
2016-05-13T10:51:43.027Z,27.36
2016-05-13T10:52:43.060Z,27.56
2016-05-13T10:53:42.953Z,27.46
2016-05-13T10:54:43.174Z,27.66
2016-05-13T10:55:43.209Z,27.26
2016-05-13T10:56:43.289Z,27.36
2016-05-13T10:57:43.324Z,27.26
2016-05-13T10:58:43.373Z,27.36
2016-05-13T10:59:43.453Z,27.08
2016-05-13T11:00:43.503Z,26.4
2016-05-13T11:01:43.553Z,26.88
2016-05-13T11:02:43.462Z,26.68
2016-05-13T11:03:43.698Z,26.68
2016-05-13T11:04:43.701Z,26.59
2016-05-13T11:05:43.767Z,26.5
2016-05-13T11:06:43.831Z,26.59
2016-05-13T11:07:43.709Z,26.1
2016-05-13T11:08:43.931Z,25.92
2016-05-13T11:09:43.981Z,25.43
2016-05-13T11:10:44.077Z,25.14
2016-05-13T11:11:44.095Z,25.34
2016-05-13T11:12:43.989Z,24.66
2016-05-13T11:13:44.054Z,25.24
2016-05-13T11:14:44.103Z,25.04
2016-05-13T11:15:44.152Z,24.37
2016-05-13T11:16:44.218Z,24.76
2016-05-13T11:17:45.783Z,24.66
2016-05-13T11:18:45.052Z,24.85
2016-05-13T11:19:44.523Z,24.08
2016-05-13T11:20:44.588Z,24.27
2016-05-13T11:21:44.638Z,24.66
2016-05-13T11:22:44.688Z,24.66
2016-05-13T11:23:44.768Z,24.95
2016-05-13T11:24:44.802Z,24.66
2016-05-13T11:25:44.852Z,24.66
2016-05-13T11:26:44.932Z,24.56
2016-05-13T11:27:44.982Z,25.24
2016-05-13T11:28:45.016Z,24.85
2016-05-13T11:29:44.925Z,25.62
2016-05-13T11:30:45.146Z,24.66
2016-05-13T11:31:45.165Z,25.04
2016-05-13T11:32:45.245Z,24.66
2016-05-13T11:33:45.279Z,24.66
2016-05-13T11:34:45.220Z,24.66
2016-05-13T11:35:45.409Z,24.66
2016-05-13T11:36:45.459Z,24.37
2016-05-13T11:37:45.525Z,24.46
2016-05-13T11:38:45.590Z,24.27
2016-05-13T11:39:45.624Z,23.98
2016-05-13T11:40:45.689Z,24.08
2016-05-13T11:41:45.754Z,24.46
2016-05-13T11:42:45.788Z,24.76
2016-05-13T11:43:45.838Z,24.76
2016-05-13T11:44:45.902Z,24.76
2016-05-13T11:45:45.936Z,24.66
2016-05-13T11:46:46.018Z,24.95
2016-05-13T11:47:46.083Z,24.76
2016-05-13T11:48:46.117Z,24.95
2016-05-13T11:49:46.183Z,24.85
2016-05-13T11:50:46.060Z,24.65
2016-05-13T11:51:46.124Z,24.66
2016-05-13T11:52:46.346Z,24.85
2016-05-13T11:53:46.380Z,24.95
2016-05-13T11:54:46.430Z,25.24
2016-05-13T11:55:46.510Z,24.56
2016-05-13T11:56:46.545Z,25.24
2016-05-13T11:57:46.594Z,25.04
2016-05-13T11:58:46.675Z,25.24
2016-05-13T11:59:46.709Z,24.95
2016-05-13T12:00:46.789Z,25.52
2016-05-13T12:01:46.824Z,25.34
2016-05-13T12:02:46.904Z,25.52
2016-05-13T12:03:46.954Z,25.24
2016-05-13T12:04:47.004Z,25.24
2016-05-13T12:05:47.037Z,25.24
2016-05-13T12:06:47.103Z,24.95
2016-05-13T12:07:47.168Z,25.14
2016-05-13T12:08:47.202Z,24.95
2016-05-13T12:09:47.267Z,24.56
2016-05-13T12:10:47.176Z,24.85
2016-05-13T12:11:47.366Z,24.37
2016-05-13T12:12:47.822Z,24.76
2016-05-13T12:13:47.465Z,24.66
2016-05-13T12:14:47.546Z,24.46
2016-05-13T12:15:47.439Z,24.66
2016-05-13T12:16:47.645Z,24.66
2016-05-13T12:17:47.726Z,24.85
2016-05-13T12:18:47.760Z,24.76
2016-05-13T12:19:47.810Z,24.37
2016-05-13T12:20:47.875Z,24.27
2016-05-13T12:21:47.940Z,24.46
2016-05-13T12:22:47.974Z,24.27
2016-05-13T12:23:48.023Z,24.17
2016-05-13T12:24:48.089Z,24.46
2016-05-13T12:25:48.154Z,24.56
2016-05-13T12:26:48.204Z,24.46
2016-05-13T12:27:48.238Z,24.56
2016-05-13T12:28:48.318Z,24.08
2016-05-13T12:29:48.368Z,24.27
2016-05-13T12:30:48.402Z,24.08
2016-05-13T12:31:48.451Z,24.08
2016-05-13T12:32:48.673Z,24.37
2016-05-13T12:33:48.582Z,24.17
2016-05-13T12:34:48.615Z,24.17
2016-05-13T12:35:48.696Z,24.17
2016-05-13T12:36:48.746Z,24.27
2016-05-13T12:37:48.811Z,23.3
2016-05-13T12:38:48.940Z,22.82
2016-05-13T12:39:48.895Z,23.01
2016-05-13T12:40:48.975Z,23.5
2016-05-13T12:41:49.010Z,23.29
2016-05-13T12:42:49.059Z,23.3
2016-05-13T12:43:49.140Z,23.5
2016-05-13T12:44:49.190Z,23.4
2016-05-13T12:45:49.223Z,23.69
2016-05-13T12:46:49.289Z,23.01
2016-05-13T12:47:49.416Z,23.59
2016-05-13T12:48:49.231Z,23.4
2016-05-13T12:49:49.453Z,23.59
2016-05-13T12:50:49.486Z,23.4
2016-05-13T12:51:49.568Z,23.69
2016-05-13T12:52:49.633Z,23.5
2016-05-13T12:53:49.651Z,24.08
2016-05-13T12:54:49.732Z,24.17